Aérodrome :
LOGIN :

S'inscrire | Disclaimer

   EN    FR    IT 

 










Légende :    VFR   VFR Marginal   IFR   IFR Intensif   IFR Très Intensif
Visi : 
Plafond : 
>= 8 km
>= 3000ft
5 à 8 km
1000 à 3000 ft
1500m à 5 km
500 à 1000 ft
800 à 1500m
200 à 500 ft
< 800m
< 200 ft
Symboles :   Orages  Brouillard  Fortes neiges  Fortes précipitations  Vent > 20 kt
SIGMETs :   Divers  Orages  Givrage  Turbulence  Onde Orograph.  Cendres Volcan.







- Altitude de l'aérodrome : 1234 ft
- Code IATA : LUX


ELLX - Luxembourg Findel

DERNIER METAR :
  • 210850Z 22013G23KT 190V250 9999 -RA SCT025 19/12 Q1010 TEMPO 23020G35KT

METARs EXPIRÉS :
  • 210820Z 23014G25KT 190V260 9999 -RA FEW029 18/12 Q1010 TEMPO 23020G30KT
  • 210750Z 22016KT CAVOK 18/12 Q1010 TEMPO 23020G30KT
  • 210720Z 21011KT 190V250 CAVOK 18/12 Q1009 NOSIG
  • 210650Z 22013KT 9999 FEW027 18/11 Q1009 NOSIG
  • 210620Z 22010KT 190V250 9999 FEW027 18/12 Q1010 NOSIG

TAF TAF ELLX
Valide du 21 à 06h jusqu'au 22 à 12h UTC


210500Z 2106/2212 19005KT 9999 FEW045
BECMG 2108/2110 22012G25KT 4000 RA BKN020
TEMPO 2108/2118 27018G32KT
BECMG 2110/2112 9999 NSW SCT018
BECMG 2117/2119 27006KT
ATIS : +352 4798 27300
Météo : +352 4798 27010 / 27050
Pas de NOTAMs connus pour ce terrain.



MET'MAP, la Météo Aéronautique d'un coup d'oeil ! - Copyright ORBIFLY Décembre 2007 - Disclaimer

ORBIFLY MET'MAP TEAM :

Programmation & Développement : Alexandra Zaïnal
Conception & Développement : Baudouin d'Aumeries
Co-Programmation & Développement : Marc-Olivier Méhu
Soutien technique & logistique : Manuel Goepfert

Contact : metmap@orbifly.com




SOURCES & CREDITS :

   NOAA